createdAt,value
2023-03-20T00:01:29.983Z,92889.84
2023-03-20T00:04:13.011Z,92887.13
2023-03-20T00:06:56.011Z,92896.16
2023-03-20T00:09:40.231Z,92901.97
2023-03-20T00:12:26.198Z,92890.78
2023-03-20T00:15:22.129Z,92895.09
2023-03-20T00:18:07.633Z,92896.03
2023-03-20T00:20:51.717Z,92898.59
2023-03-20T00:23:34.792Z,92899.56
2023-03-20T00:26:20.711Z,92901.28
2023-03-20T00:29:05.535Z,92894.53
2023-03-20T00:31:48.436Z,92894.69
2023-03-20T00:34:32.850Z,92894.19
2023-03-20T00:37:15.656Z,92890.00
2023-03-20T00:39:58.428Z,92893.78
2023-03-20T00:42:43.231Z,92899.84
2023-03-20T00:45:26.265Z,92896.59
2023-03-20T00:48:14.252Z,92886.50
2023-03-20T00:50:58.851Z,92885.94
2023-03-20T00:53:41.625Z,92885.94
2023-03-20T00:56:36.094Z,92889.44
2023-03-20T00:59:25.608Z,92885.00
2023-03-20T01:02:08.531Z,92883.38
2023-03-20T01:04:52.413Z,92885.00
2023-03-20T01:07:35.392Z,92886.50
2023-03-20T01:10:19.230Z,92884.88
2023-03-20T01:13:03.371Z,92883.94
2023-03-20T01:15:48.291Z,92893.63
2023-03-20T01:18:31.361Z,92889.06
2023-03-20T01:21:14.300Z,92892.69
2023-03-20T01:23:57.102Z,92895.94
2023-03-20T01:26:42.140Z,92893.25
2023-03-20T01:29:27.166Z,92894.88
2023-03-20T01:32:14.315Z,92895.66
2023-03-20T01:34:58.191Z,92889.75
2023-03-20T01:37:41.395Z,92887.97
2023-03-20T01:40:48.117Z,92882.88
2023-03-20T01:43:35.967Z,92882.06
2023-03-20T01:46:24.131Z,92887.19
2023-03-20T01:49:49.291Z,92886.25
2023-03-20T01:52:32.330Z,92889.59
2023-03-20T01:55:15.392Z,92891.50
2023-03-20T01:58:08.279Z,92887.47
2023-03-20T02:00:51.828Z,92891.75
2023-03-20T02:03:35.904Z,92889.59
2023-03-20T02:06:44.958Z,92881.25
2023-03-20T02:09:33.950Z,92884.91
2023-03-20T02:12:20.850Z,92879.91
2023-03-20T02:15:05.564Z,92884.22
2023-03-20T02:18:17.812Z,92887.72
2023-03-20T02:21:46.752Z,92882.88
2023-03-20T02:24:55.425Z,92881.56
2023-03-20T02:27:51.856Z,92881.00
2023-03-20T02:30:48.854Z,92879.53
2023-03-20T02:34:02.262Z,92878.84
2023-03-20T02:37:18.330Z,92873.72
2023-03-20T02:40:11.740Z,92879.66
2023-03-20T02:43:03.450Z,92877.91
2023-03-20T02:45:53.279Z,92876.97
2023-03-20T02:48:46.454Z,92875.88
2023-03-20T02:51:37.022Z,92871.59
2023-03-20T02:54:29.408Z,92872.25
2023-03-20T02:57:20.620Z,92867.13
2023-03-20T03:00:10.367Z,92873.56
2023-03-20T03:03:01.617Z,92876.03
2023-03-20T03:05:49.198Z,92878.31
2023-03-20T03:08:36.386Z,92882.19
2023-03-20T03:11:20.988Z,92885.44
2023-03-20T03:14:08.780Z,92886.09
2023-03-20T03:16:53.650Z,92880.72
2023-03-20T03:19:37.989Z,92887.56
2023-03-20T03:22:21.249Z,92886.50
2023-03-20T03:25:04.778Z,92889.88
2023-03-20T03:27:55.275Z,92891.50
2023-03-20T03:30:40.908Z,92894.72
2023-03-20T03:33:27.607Z,92892.84
2023-03-20T03:36:18.364Z,92900.53
2023-03-20T03:39:06.461Z,92894.47
2023-03-20T03:41:53.260Z,92900.53
2023-03-20T03:44:45.028Z,92898.91
2023-03-20T03:47:33.593Z,92901.47
2023-03-20T03:50:21.977Z,92907.38
2023-03-20T03:53:11.383Z,92903.22
2023-03-20T03:55:57.784Z,92902.41
2023-03-20T03:58:44.982Z,92905.66
2023-03-20T04:01:32.471Z,92904.03
2023-03-20T04:04:17.206Z,92914.94
2023-03-20T04:06:59.895Z,92910.88
2023-03-20T04:09:44.028Z,92912.81
2023-03-20T04:12:36.571Z,92918.03
2023-03-20T04:15:21.698Z,92919.94
2023-03-20T04:18:06.100Z,92915.75
2023-03-20T04:20:50.000Z,92918.31
2023-03-20T04:23:33.128Z,92924.25
2023-03-20T04:26:16.201Z,92921.56
2023-03-20T04:28:59.053Z,92922.22
2023-03-20T04:32:04.233Z,92922.91
2023-03-20T04:35:05.171Z,92921.13
2023-03-20T04:38:01.810Z,92923.56
2023-03-20T04:40:48.983Z,92914.94
2023-03-20T04:43:32.236Z,92921.44
2023-03-20T04:46:15.606Z,92923.03
2023-03-20T04:48:58.636Z,92928.81
2023-03-20T04:51:46.794Z,92919.38
2023-03-20T04:54:31.808Z,92918.97
2023-03-20T04:57:14.718Z,92923.00
2023-03-20T04:59:57.814Z,92929.75
2023-03-20T05:02:40.983Z,92928.69
2023-03-20T05:05:24.577Z,92932.88
2023-03-20T05:08:08.774Z,92941.09
2023-03-20T05:10:54.174Z,92943.78
2023-03-20T05:14:15.391Z,92941.63
2023-03-20T05:17:23.077Z,92952.13
2023-03-20T05:20:25.026Z,92945.81
2023-03-20T05:23:19.557Z,92952.81
2023-03-20T05:26:07.612Z,92954.84
2023-03-20T05:29:10.762Z,92957.56
2023-03-20T05:32:04.427Z,92956.06
2023-03-20T05:34:53.363Z,92954.44
2023-03-20T05:37:42.175Z,92959.72
2023-03-20T05:40:46.916Z,92959.72
2023-03-20T05:43:55.679Z,92959.03
2023-03-20T05:46:57.099Z,92959.84
2023-03-20T05:50:02.760Z,92955.53
2023-03-20T05:53:01.903Z,92962.28
2023-03-20T05:55:57.013Z,92969.97
2023-03-20T05:59:05.887Z,92968.22
2023-03-20T06:01:55.486Z,92974.94
2023-03-20T06:04:42.092Z,92968.22
2023-03-20T06:07:35.349Z,92971.31
2023-03-20T06:10:23.729Z,92969.53
2023-03-20T06:13:08.992Z,92984.94
2023-03-20T06:15:52.004Z,92981.78
2023-03-20T06:18:34.900Z,92980.31
2023-03-20T06:21:17.883Z,92981.78
2023-03-20T06:24:00.970Z,92984.34
2023-03-20T06:26:45.297Z,92993.53
2023-03-20T06:29:31.211Z,92998.53
2023-03-20T06:32:24.113Z,93004.72
2023-03-20T06:35:09.342Z,93002.44
2023-03-20T06:37:52.821Z,92998.09
2023-03-20T06:40:40.077Z,93002.28
2023-03-20T06:43:23.006Z,93006.34
2023-03-20T06:46:10.429Z,93004.47
2023-03-20T06:48:53.476Z,93005.69
2023-03-20T06:51:36.316Z,93007.69
2023-03-20T06:54:21.844Z,93007.16
2023-03-20T06:57:04.757Z,93006.66
2023-03-20T06:59:47.772Z,93006.25
2023-03-20T07:02:32.559Z,93006.50
2023-03-20T07:05:16.075Z,93013.63
2023-03-20T07:07:59.604Z,93022.41
2023-03-20T07:10:43.031Z,93024.84
2023-03-20T07:13:26.378Z,93020.53
2023-03-20T07:16:10.968Z,93020.38
2023-03-20T07:18:58.065Z,93018.38
2023-03-20T07:21:42.327Z,93025.81
2023-03-20T07:24:26.412Z,93021.31
2023-03-20T07:27:09.321Z,93029.56
2023-03-20T07:29:53.324Z,93031.19
2023-03-20T07:32:37.792Z,93031.03
2023-03-20T07:35:22.054Z,93029.16
2023-03-20T07:38:05.231Z,93029.84
2023-03-20T07:40:49.186Z,93033.19
2023-03-20T07:43:32.644Z,93035.50
2023-03-20T07:46:35.656Z,93036.84
2023-03-20T07:49:19.402Z,93037.53
2023-03-20T07:52:04.108Z,93034.00
2023-03-20T07:54:47.618Z,93033.72
2023-03-20T07:57:31.237Z,93034.28
2023-03-20T08:00:15.903Z,93029.81
2023-03-20T08:02:58.881Z,93023.44
2023-03-20T08:05:41.771Z,93025.91
2023-03-20T08:08:26.217Z,93028.03
2023-03-20T08:11:09.115Z,93028.84
2023-03-20T08:13:52.040Z,93039.66
2023-03-20T08:16:34.974Z,93047.63
2023-03-20T08:19:18.118Z,93050.19
2023-03-20T08:22:01.029Z,93057.03
2023-03-20T08:24:45.232Z,93051.66
2023-03-20T08:27:28.060Z,93060.97
2023-03-20T08:30:13.050Z,93065.31
2023-03-20T08:32:56.040Z,93055.47
2023-03-20T08:35:39.162Z,93061.28
2023-03-20T08:38:22.090Z,93066.94
2023-03-20T08:41:07.970Z,93069.91
2023-03-20T08:43:50.812Z,93075.56
2023-03-20T08:46:33.642Z,93081.91
2023-03-20T08:49:16.473Z,93072.06
2023-03-20T08:51:59.273Z,93076.09
2023-03-20T08:54:42.160Z,93069.16
2023-03-20T08:57:27.173Z,93075.81
2023-03-20T09:00:13.890Z,93072.41
2023-03-20T09:02:56.936Z,93073.84
2023-03-20T09:05:40.101Z,93077.34
2023-03-20T09:08:23.185Z,93081.38
2023-03-20T09:11:07.200Z,93077.66
2023-03-20T09:13:51.416Z,93082.91
2023-03-20T09:16:34.430Z,93070.59
2023-03-20T09:19:18.049Z,93073.75
2023-03-20T09:22:01.418Z,93068.72
2023-03-20T09:24:44.230Z,93068.16
2023-03-20T09:27:27.119Z,93073.84
2023-03-20T09:30:12.788Z,93065.16
2023-03-20T09:32:55.950Z,93062.84
2023-03-20T09:35:40.855Z,93054.97
2023-03-20T09:38:25.287Z,93067.31
2023-03-20T09:41:13.426Z,93061.09
2023-03-20T09:44:10.589Z,93055.91
2023-03-20T09:47:19.734Z,93051.34
2023-03-20T09:50:22.337Z,93055.97
2023-03-20T09:53:12.059Z,93053.81
2023-03-20T09:55:56.925Z,93061.44
2023-03-20T09:58:41.718Z,93049.53
2023-03-20T10:01:25.837Z,93055.00
2023-03-20T10:04:12.404Z,93048.53
2023-03-20T10:06:56.637Z,93054.00
2023-03-20T10:09:39.606Z,93050.75
2023-03-20T10:12:35.230Z,93054.50
2023-03-20T10:15:29.916Z,93053.38
2023-03-20T10:18:35.814Z,93063.09
2023-03-20T10:21:31.953Z,93053.91
2023-03-20T10:24:20.693Z,93058.03
2023-03-20T10:27:11.476Z,93053.84
2023-03-20T10:30:05.110Z,93043.81
2023-03-20T10:32:53.636Z,93054.78
2023-03-20T10:35:46.142Z,93047.88
2023-03-20T10:38:38.011Z,93046.44
2023-03-20T10:41:23.756Z,93045.28
2023-03-20T10:44:14.853Z,93037.88
2023-03-20T10:47:00.562Z,93038.84
2023-03-20T10:49:51.311Z,93041.25
2023-03-20T10:52:39.286Z,93033.34
2023-03-20T10:55:27.661Z,93033.84
2023-03-20T10:58:17.324Z,93024.81
2023-03-20T11:01:00.973Z,93027.91
2023-03-20T11:03:44.177Z,93025.94
2023-03-20T11:06:32.230Z,93031.28
2023-03-20T11:09:20.491Z,93023.25
2023-03-20T11:12:05.510Z,93018.25
2023-03-20T11:14:48.391Z,93020.16
2023-03-20T11:17:31.201Z,93021.41
2023-03-20T11:20:15.482Z,93026.09
2023-03-20T11:23:00.863Z,93026.59
2023-03-20T11:25:51.527Z,93030.75
2023-03-20T11:28:37.877Z,93023.50
2023-03-20T11:31:27.027Z,93021.19
2023-03-20T11:34:26.629Z,93023.78
2023-03-20T11:37:24.831Z,93025.81
2023-03-20T11:40:17.497Z,93024.22
2023-03-20T11:43:07.507Z,93029.84
2023-03-20T11:45:57.245Z,93030.25
2023-03-20T11:48:42.434Z,93033.63
2023-03-20T11:51:25.355Z,93030.84
2023-03-20T11:54:14.985Z,93031.69
2023-03-20T11:56:59.358Z,93026.53
2023-03-20T11:59:42.392Z,93033.44
2023-03-20T12:02:27.243Z,93021.38
2023-03-20T12:05:31.709Z,93021.19
2023-03-20T12:08:19.522Z,93033.81
2023-03-20T12:11:14.352Z,93023.91
2023-03-20T12:14:02.084Z,93022.38
2023-03-20T12:16:46.263Z,93022.88
2023-03-20T12:19:31.694Z,93016.63
2023-03-20T12:22:23.616Z,93013.91
2023-03-20T12:25:19.029Z,93018.25
2023-03-20T12:28:11.934Z,93007.41
2023-03-20T12:31:07.287Z,93006.59
2023-03-20T12:33:53.978Z,93003.72
2023-03-20T12:36:42.871Z,93010.31
2023-03-20T12:39:29.420Z,93010.81
2023-03-20T12:42:26.102Z,93010.00
2023-03-20T12:45:13.385Z,93014.06
2023-03-20T12:48:07.177Z,93010.19
2023-03-20T12:50:57.160Z,93005.53
2023-03-20T12:54:08.985Z,93002.09
2023-03-20T12:57:03.917Z,93004.53
2023-03-20T13:00:03.756Z,92998.88
2023-03-20T13:02:58.770Z,92993.75
2023-03-20T13:05:53.133Z,92996.31
2023-03-20T13:09:02.106Z,92994.38
2023-03-20T13:11:52.884Z,92992.44
2023-03-20T13:14:44.032Z,92990.00
2023-03-20T13:17:33.680Z,92983.22
2023-03-20T13:20:22.718Z,92985.50
2023-03-20T13:23:12.322Z,92986.63
2023-03-20T13:26:11.562Z,92989.53
2023-03-20T13:29:05.622Z,92987.59
2023-03-20T13:31:58.611Z,92977.75
2023-03-20T13:35:02.148Z,92980.47
2023-03-20T13:37:51.088Z,92975.97
2023-03-20T13:40:38.441Z,92976.16
2023-03-20T13:43:27.606Z,92979.03
2023-03-20T13:46:15.800Z,92971.94
2023-03-20T13:49:04.587Z,92972.41
2023-03-20T13:51:56.075Z,92976.28
2023-03-20T13:54:53.737Z,92983.22
2023-03-20T13:57:49.699Z,92985.28
2023-03-20T14:00:38.102Z,92977.06
2023-03-20T14:03:28.589Z,92983.31
2023-03-20T14:06:19.245Z,92990.09
2023-03-20T14:09:02.081Z,92982.84
2023-03-20T14:11:45.519Z,92980.72
2023-03-20T14:14:30.660Z,92986.50
2023-03-20T14:17:19.093Z,92976.97
2023-03-20T14:20:14.030Z,92986.63
2023-03-20T14:22:58.425Z,92982.28
2023-03-20T14:25:43.599Z,92982.44
2023-03-20T14:28:31.564Z,92979.69
2023-03-20T14:31:23.205Z,92976.75
2023-03-20T14:34:17.229Z,92970.31
2023-03-20T14:37:03.311Z,92974.50
2023-03-20T14:39:50.722Z,92968.69
2023-03-20T14:42:41.065Z,92971.44
2023-03-20T14:45:41.835Z,92975.63
2023-03-20T14:48:33.146Z,92973.72
2023-03-20T14:51:25.616Z,92973.88
2023-03-20T14:54:27.957Z,92975.38
2023-03-20T14:57:18.680Z,92967.63
2023-03-20T15:00:02.011Z,92961.97
2023-03-20T15:02:49.318Z,92960.22
2023-03-20T15:05:34.394Z,92958.44
2023-03-20T15:08:29.794Z,92960.06
2023-03-20T15:11:16.593Z,92957.16
2023-03-20T15:14:01.177Z,92957.66
2023-03-20T15:16:46.735Z,92956.72
2023-03-20T15:19:30.778Z,92955.13
2023-03-20T15:22:17.909Z,92962.03
2023-03-20T15:25:00.864Z,92951.06
2023-03-20T15:27:45.281Z,92957.00
2023-03-20T15:30:30.713Z,92953.44
2023-03-20T15:33:18.698Z,92953.28
2023-03-20T15:36:09.652Z,92955.53
2023-03-20T15:38:52.580Z,92955.69
2023-03-20T15:41:38.574Z,92954.41
2023-03-20T15:44:25.029Z,92952.28
2023-03-20T15:47:16.859Z,92954.53
2023-03-20T15:50:02.586Z,92953.34
2023-03-20T15:52:52.824Z,92957.34
2023-03-20T15:55:36.622Z,92959.16
2023-03-20T15:58:20.140Z,92965.38
2023-03-20T16:01:06.683Z,92952.97
2023-03-20T16:03:50.094Z,92951.84
2023-03-20T16:06:33.212Z,92954.88
2023-03-20T16:09:17.462Z,92960.78
2023-03-20T16:12:02.764Z,92959.66
2023-03-20T16:14:47.051Z,92956.84
2023-03-20T16:17:31.580Z,92959.84
2023-03-20T16:20:15.542Z,92951.94
2023-03-20T16:23:02.932Z,92958.38
2023-03-20T16:25:45.809Z,92961.22
2023-03-20T16:28:29.145Z,92959.75
2023-03-20T16:31:17.582Z,92953.97
2023-03-20T16:34:03.604Z,92961.69
2023-03-20T16:36:53.677Z,92955.22
2023-03-20T16:39:36.567Z,92950.09
2023-03-20T16:42:25.489Z,92952.28
2023-03-20T16:45:17.735Z,92950.53
2023-03-20T16:48:25.492Z,92955.03
2023-03-20T16:51:18.570Z,92949.34
2023-03-20T16:54:02.052Z,92948.72
2023-03-20T16:56:53.465Z,92957.22
2023-03-20T16:59:40.806Z,92954.66
2023-03-20T17:02:26.636Z,92952.38
2023-03-20T17:05:14.473Z,92961.88
2023-03-20T17:08:06.797Z,92954.28
2023-03-20T17:10:52.235Z,92964.56
2023-03-20T17:13:35.060Z,92965.41
2023-03-20T17:16:21.393Z,92962.16
2023-03-20T17:19:07.712Z,92964.88
2023-03-20T17:21:50.956Z,92966.81
2023-03-20T17:24:35.204Z,92972.91
2023-03-20T17:27:19.160Z,92980.75
2023-03-20T17:30:02.052Z,92969.16
2023-03-20T17:32:44.924Z,92972.81
2023-03-20T17:35:27.809Z,92978.91
2023-03-20T17:38:17.453Z,92980.03
2023-03-20T17:41:02.072Z,92979.53
2023-03-20T17:43:45.272Z,92983.06
2023-03-20T17:46:31.074Z,92977.38
2023-03-20T17:49:16.840Z,92981.06
2023-03-20T17:51:59.718Z,92978.50
2023-03-20T17:54:42.884Z,92982.97
2023-03-20T17:57:32.695Z,92985.69
2023-03-20T18:00:20.538Z,92982.31
2023-03-20T18:03:03.375Z,92983.41
2023-03-20T18:05:47.485Z,92986.16
2023-03-20T18:08:30.291Z,92989.78
2023-03-20T18:11:13.315Z,92990.91
2023-03-20T18:13:57.484Z,92984.16
2023-03-20T18:16:40.367Z,92986.88
2023-03-20T18:19:28.388Z,92985.25
2023-03-20T18:22:11.751Z,92982.81
2023-03-20T18:24:54.604Z,92974.59
2023-03-20T18:27:37.399Z,92980.84
2023-03-20T18:30:24.013Z,92980.59
2023-03-20T18:33:07.008Z,92983.47
2023-03-20T18:35:49.890Z,92983.75
2023-03-20T18:38:32.788Z,92990.97
2023-03-20T18:41:15.978Z,92988.69
2023-03-20T18:43:58.789Z,92988.13
2023-03-20T18:46:44.026Z,92986.00
2023-03-20T18:49:26.879Z,92985.50
2023-03-20T18:52:11.394Z,92990.13
2023-03-20T18:54:54.222Z,92992.03
2023-03-20T18:57:43.025Z,92992.16
2023-03-20T19:00:29.017Z,92986.38
2023-03-20T19:03:13.223Z,92983.13
2023-03-20T19:05:58.565Z,92981.50
2023-03-20T19:08:41.368Z,92985.81
2023-03-20T19:11:24.187Z,92986.78
2023-03-20T19:14:07.000Z,92988.81
2023-03-20T19:16:51.076Z,92986.53
2023-03-20T19:19:35.288Z,92979.13
2023-03-20T19:22:29.023Z,92980.38
2023-03-20T19:25:12.517Z,92982.13
2023-03-20T19:27:55.435Z,92989.81
2023-03-20T19:30:40.778Z,92986.47
2023-03-20T19:33:23.685Z,92988.19
2023-03-20T19:36:09.251Z,92989.97
2023-03-20T19:38:52.347Z,92989.03
2023-03-20T19:41:35.407Z,92988.19
2023-03-20T19:44:18.932Z,92995.91
2023-03-20T19:47:01.800Z,92991.72
2023-03-20T19:49:44.621Z,92997.00
2023-03-20T19:52:33.998Z,92994.72
2023-03-20T19:55:16.821Z,92988.78
2023-03-20T19:58:00.741Z,92987.97
2023-03-20T20:01:00.826Z,92992.31
2023-03-20T20:03:44.268Z,92987.16
2023-03-20T20:06:32.166Z,92987.28
2023-03-20T20:09:18.100Z,92985.53
2023-03-20T20:12:00.901Z,92979.47
2023-03-20T20:14:44.119Z,92983.78
2023-03-20T20:17:26.990Z,92987.97
2023-03-20T20:20:12.557Z,92982.81
2023-03-20T20:22:55.471Z,92990.69
2023-03-20T20:25:40.258Z,92983.94
2023-03-20T20:28:23.887Z,92980.84
2023-03-20T20:31:06.715Z,92980.03
2023-03-20T20:34:02.122Z,92978.56
2023-03-20T20:39:55.289Z,92988.28
2023-03-20T20:42:40.548Z,92984.09
2023-03-20T20:45:25.238Z,92991.00
2023-03-20T20:48:08.220Z,92994.66
2023-03-20T20:50:51.062Z,92992.22
2023-03-20T20:53:33.876Z,92988.94
2023-03-20T20:56:16.752Z,92988.16
2023-03-20T20:59:01.050Z,92995.19
2023-03-20T21:01:43.933Z,92994.22
2023-03-20T21:04:27.138Z,92989.25
2023-03-20T21:07:12.819Z,92980.72
2023-03-20T21:09:55.777Z,92985.84
2023-03-20T21:12:55.945Z,92980.72
2023-03-20T21:15:43.349Z,92990.19
2023-03-20T21:18:26.452Z,92990.19
2023-03-20T21:21:11.544Z,92992.75
2023-03-20T21:23:55.336Z,92980.88
2023-03-20T21:26:38.618Z,92981.81
2023-03-20T21:29:21.500Z,92985.34
2023-03-20T21:32:06.261Z,92984.66
2023-03-20T21:34:50.162Z,92979.81
2023-03-20T21:40:36.203Z,92979.41
2023-03-20T21:43:19.206Z,92975.66
2023-03-20T22:01:58.366Z,92989.19
2023-03-20T22:05:24.698Z,92988.00
2023-03-20T22:17:41.051Z,92987.09
2023-03-20T22:20:49.170Z,92997.88
2023-03-20T22:32:44.854Z,92983.44
2023-03-20T22:36:13.725Z,92985.22
2023-03-20T22:38:59.901Z,92983.19
2023-03-20T22:42:13.796Z,92986.53
2023-03-20T22:44:56.893Z,92983.84
2023-03-20T22:47:21.841Z,92986.16
2023-03-20T22:50:07.041Z,92985.19
2023-03-20T22:52:52.546Z,92979.94
2023-03-20T22:55:35.467Z,92979.78
2023-03-20T22:58:18.326Z,92973.72
2023-03-20T23:01:01.256Z,92970.38
2023-03-20T23:03:44.248Z,92972.25
2023-03-20T23:06:28.703Z,92969.81
2023-03-20T23:09:15.322Z,92965.50
2023-03-20T23:11:58.717Z,92968.88
2023-03-20T23:14:45.792Z,92970.63
2023-03-20T23:17:29.166Z,92969.97
2023-03-20T23:20:17.744Z,92971.03
2023-03-20T23:23:03.853Z,92971.16
2023-03-20T23:25:47.184Z,92974.13
2023-03-20T23:28:30.189Z,92975.34
2023-03-20T23:31:15.472Z,92969.84
2023-03-20T23:33:59.207Z,92965.91
2023-03-20T23:36:42.312Z,92970.50
2023-03-20T23:39:26.711Z,92967.25
2023-03-20T23:42:20.624Z,92957.53
2023-03-20T23:45:20.100Z,92960.78
2023-03-20T23:48:03.549Z,92960.66
2023-03-20T23:50:52.975Z,92956.59
2023-03-20T23:53:36.461Z,92964.41
2023-03-20T23:56:21.132Z,92959.41
2023-03-20T23:59:15.007Z,92956.16
